Terminal Aerodrome Forecast
Issued by NWS

Home | Current Version | Previous Version | Text Only | Print | Product List | Glossary On
Versions: 1 2 3 4 5 6 7 8 9 10 11 12 13 14 15
000
FTUS43 KJKL 180800 AAA
TAFSME
TAF AMD
KSME 180815Z 1808/1906 28008KT P6SM VCSH SCT030 BKN045
      TEMPO 1808/1810 4SM -SHSN BKN020
     FM181300 26008G15KT P6SM SCT050
     FM181700 28010G18KT P6SM FEW100=

USA.gov is the U.S. government's official web portal to all federal, state and local government web resources and services.